Terminal Aerodrome Forecast
Issued by NWS Melbourne, FL

Home | Current Version | Previous Version | Text Only | Print | Product List | Glossary On
Versions: 1 2 3 4 5 6 7 8 9 10 11 12 13 14
201
FTUS42 KMLB 270046 AAA
TAFMLB
TAF AMD
KMLB 270046Z 2701/2724 13005KT P6SM VCTS FEW035CB SCT050 OVC250
     FM270230 23003KT P6SM FEW120 BKN250
     FM271400 23004KT P6SM SCT025 BKN250
     FM271700 10010KT P6SM VCTS BKN035CB BKN060
      TEMPO 2717/2720 3SM TSRA BKN025CB=

USA.gov is the U.S. government's official web portal to all federal, state and local government web resources and services.